This is the latest recevied weather packets stored in our database for station/object N2PPN. If no packets are shown the sender has not sent any weather packets the latest 10 day(s).
| Time | Temp. | Humidity | Pressure | Rain* | Wind** | Luminosity | Snow |
|---|---|---|---|---|---|---|---|
| 1777490355 | 10.56° C | 86% | 1017.6 hPa | 0 mm | - | 382 W/m² | - |
| 1777490053 | 10.56° C | 86% | 1017.5 hPa | 0 mm | - | 305 W/m² | - |
| 1777489749 | 10.56° C | 84% | 1017.6 hPa | 0 mm | - | 286 W/m² | - |
| 1777489447 | 11.67° C | 81% | 1018.1 hPa | 0 mm | - | 267 W/m² | - |
| 1777489144 | 11.67° C | 81% | 1017.8 hPa | 0 mm | - | 565 W/m² | - |
| 1777488841 | 12.22° C | 80% | 1017.7 hPa | 0 mm | - | 594 W/m² | - |
| 1777488538 | 11.67° C | 81% | 1017.7 hPa | 0 mm | - | 624 W/m² | - |
| 1777488235 | 11.11° C | 82% | 1017.8 hPa | 0 mm | - | 371 W/m² | - |
| 1777487934 | 11.67° C | 82% | 1018.1 hPa | 0 mm | - | 439 W/m² | - |
| 1777487631 | 12.22° C | 80% | 1017.7 hPa | 0 mm | - | 479 W/m² | - |
| 1777487328 | 11.67° C | 80% | 1017.6 hPa | 0 mm | - | 534 W/m² | - |
| 1777487025 | 11.67° C | 80% | 1017.7 hPa | 0 mm | - | 529 W/m² | - |
| 1777486721 | 12.22° C | 78% | 1017.7 hPa | 0 mm | - | 536 W/m² | - |
| 1777486420 | 12.22° C | 78% | 1018 hPa | 0 mm | - | 547 W/m² | - |
| 1777486116 | 12.78° C | 77% | 1018 hPa | 0 mm | - | 692 W/m² | - |
| 1777485813 | 12.78° C | 75% | 1018.1 hPa | 0 mm | - | 689 W/m² | - |
| 1777485509 | 12.78° C | 75% | 1018 hPa | 0 mm | - | 666 W/m² | - |
| 1777485206 | 12.78° C | 75% | 1018 hPa | 0 mm | - | 716 W/m² | - |
| 1777484901 | 12.22° C | 74% | 1018.1 hPa | 0 mm | - | 504 W/m² | - |
| 1777484599 | 13.33° C | 72% | 1017.9 hPa | 0 mm | - | 625 W/m² | - |
| 1777484295 | 12.22° C | 77% | 1018 hPa | 0 mm | - | 697 W/m² | - |
| 1777483991 | 12.78° C | 74% | 1017.9 hPa | 0 mm | - | 661 W/m² | - |
| 1777483688 | 12.78° C | 76% | 1017.9 hPa | 0 mm | - | 709 W/m² | - |
| 1777483383 | 12.78° C | 75% | 1018 hPa | 0 mm | - | 738 W/m² | - |
| 1777483078 | 12.78° C | 77% | 1018.1 hPa | 0 mm | - | 754 W/m² | - |
* Rain latest hour (hover to see other rain measurements)
** Current wind speed in m/s (hover to see current wind gust speed)